sensor_id;sensor_type;location;lat;lon;timestamp;P1;durP1;ratioP1;P2;durP2;ratioP2
13079;SDS011;6606;49.154;9.280;2022-12-18T00:01:53;65.60;;;32.73;;
13079;SDS011;6606;49.154;9.280;2022-12-18T00:04:38;68.33;;;33.33;;
13079;SDS011;6606;49.154;9.280;2022-12-18T00:07:20;65.77;;;33.90;;
13079;SDS011;6606;49.154;9.280;2022-12-18T00:10:02;64.00;;;32.67;;
13079;SDS011;6606;49.154;9.280;2022-12-18T00:12:44;65.43;;;30.60;;
13079;SDS011;6606;49.154;9.280;2022-12-18T00:15:27;64.23;;;33.50;;
13079;SDS011;6606;49.154;9.280;2022-12-18T00:18:09;75.97;;;31.40;;
13079;SDS011;6606;49.154;9.280;2022-12-18T00:20:51;64.70;;;31.63;;
13079;SDS011;6606;49.154;9.280;2022-12-18T00:23:33;58.40;;;30.23;;
13079;SDS011;6606;49.154;9.280;2022-12-18T00:26:16;53.77;;;28.60;;
13079;SDS011;6606;49.154;9.280;2022-12-18T00:29:04;58.73;;;29.73;;
13079;SDS011;6606;49.154;9.280;2022-12-18T00:31:48;59.20;;;30.30;;
13079;SDS011;6606;49.154;9.280;2022-12-18T00:34:30;53.30;;;28.57;;
13079;SDS011;6606;49.154;9.280;2022-12-18T00:37:12;66.97;;;30.57;;
13079;SDS011;6606;49.154;9.280;2022-12-18T00:39:54;54.13;;;27.93;;
13079;SDS011;6606;49.154;9.280;2022-12-18T00:42:36;59.80;;;30.93;;
13079;SDS011;6606;49.154;9.280;2022-12-18T00:45:35;58.77;;;29.33;;
13079;SDS011;6606;49.154;9.280;2022-12-18T00:48:18;59.30;;;30.67;;
13079;SDS011;6606;49.154;9.280;2022-12-18T00:51:00;57.23;;;28.43;;
13079;SDS011;6606;49.154;9.280;2022-12-18T00:53:41;51.03;;;27.80;;
13079;SDS011;6606;49.154;9.280;2022-12-18T00:56:23;62.57;;;29.67;;
13079;SDS011;6606;49.154;9.280;2022-12-18T00:59:06;60.03;;;30.53;;
13079;SDS011;6606;49.154;9.280;2022-12-18T01:01:48;55.87;;;29.50;;
13079;SDS011;6606;49.154;9.280;2022-12-18T01:04:32;60.17;;;29.27;;
13079;SDS011;6606;49.154;9.280;2022-12-18T01:07:14;61.13;;;29.87;;
13079;SDS011;6606;49.154;9.280;2022-12-18T01:09:56;50.80;;;27.70;;
13079;SDS011;6606;49.154;9.280;2022-12-18T01:12:37;60.70;;;31.73;;
13079;SDS011;6606;49.154;9.280;2022-12-18T01:15:19;59.33;;;31.53;;
13079;SDS011;6606;49.154;9.280;2022-12-18T01:18:01;55.23;;;28.73;;
13079;SDS011;6606;49.154;9.280;2022-12-18T01:20:44;55.50;;;29.30;;
13079;SDS011;6606;49.154;9.280;2022-12-18T01:23:26;52.27;;;28.33;;
13079;SDS011;6606;49.154;9.280;2022-12-18T01:26:09;56.97;;;29.23;;
13079;SDS011;6606;49.154;9.280;2022-12-18T01:28:53;53.10;;;27.80;;
13079;SDS011;6606;49.154;9.280;2022-12-18T01:31:37;52.97;;;27.80;;
13079;SDS011;6606;49.154;9.280;2022-12-18T01:34:18;64.63;;;31.30;;
13079;SDS011;6606;49.154;9.280;2022-12-18T01:37:02;58.40;;;28.87;;
13079;SDS011;6606;49.154;9.280;2022-12-18T01:39:45;58.97;;;29.93;;
13079;SDS011;6606;49.154;9.280;2022-12-18T01:42:27;58.13;;;29.40;;
13079;SDS011;6606;49.154;9.280;2022-12-18T01:45:21;57.07;;;28.97;;
13079;SDS011;6606;49.154;9.280;2022-12-18T01:48:05;56.70;;;29.97;;
13079;SDS011;6606;49.154;9.280;2022-12-18T01:50:50;53.23;;;28.83;;
13079;SDS011;6606;49.154;9.280;2022-12-18T01:53:33;49.93;;;27.77;;
13079;SDS011;6606;49.154;9.280;2022-12-18T01:56:16;51.47;;;26.20;;
13079;SDS011;6606;49.154;9.280;2022-12-18T01:59:00;46.70;;;24.83;;
13079;SDS011;6606;49.154;9.280;2022-12-18T02:01:45;45.20;;;24.10;;
13079;SDS011;6606;49.154;9.280;2022-12-18T02:04:27;44.00;;;22.10;;
13079;SDS011;6606;49.154;9.280;2022-12-18T02:07:12;48.87;;;25.90;;
13079;SDS011;6606;49.154;9.280;2022-12-18T02:10:01;48.40;;;24.70;;
13079;SDS011;6606;49.154;9.280;2022-12-18T02:12:48;50.43;;;24.87;;
13079;SDS011;6606;49.154;9.280;2022-12-18T02:15:36;47.07;;;24.67;;
13079;SDS011;6606;49.154;9.280;2022-12-18T02:18:22;42.50;;;22.50;;
13079;SDS011;6606;49.154;9.280;2022-12-18T02:21:11;48.20;;;27.07;;
13079;SDS011;6606;49.154;9.280;2022-12-18T02:24:03;44.67;;;23.00;;
13079;SDS011;6606;49.154;9.280;2022-12-18T02:26:59;48.30;;;24.90;;
13079;SDS011;6606;49.154;9.280;2022-12-18T02:29:46;55.70;;;27.60;;
13079;SDS011;6606;49.154;9.280;2022-12-18T02:32:32;52.07;;;26.40;;
13079;SDS011;6606;49.154;9.280;2022-12-18T02:35:19;53.03;;;26.87;;
13079;SDS011;6606;49.154;9.280;2022-12-18T02:38:07;46.37;;;22.47;;
13079;SDS011;6606;49.154;9.280;2022-12-18T02:40:51;44.37;;;23.87;;
13079;SDS011;6606;49.154;9.280;2022-12-18T02:43:37;48.80;;;24.83;;
13079;SDS011;6606;49.154;9.280;2022-12-18T02:46:24;43.80;;;23.27;;
13079;SDS011;6606;49.154;9.280;2022-12-18T02:49:12;42.23;;;22.20;;
13079;SDS011;6606;49.154;9.280;2022-12-18T02:52:07;46.10;;;23.20;;
13079;SDS011;6606;49.154;9.280;2022-12-18T02:54:57;51.60;;;23.80;;
13079;SDS011;6606;49.154;9.280;2022-12-18T02:57:49;51.40;;;24.10;;
13079;SDS011;6606;49.154;9.280;2022-12-18T03:00:41;49.67;;;24.87;;
13079;SDS011;6606;49.154;9.280;2022-12-18T03:03:29;46.43;;;23.90;;
13079;SDS011;6606;49.154;9.280;2022-12-18T03:06:18;54.50;;;25.43;;
13079;SDS011;6606;49.154;9.280;2022-12-18T03:09:06;48.40;;;23.73;;
13079;SDS011;6606;49.154;9.280;2022-12-18T03:11:52;51.03;;;25.13;;
13079;SDS011;6606;49.154;9.280;2022-12-18T03:14:56;48.03;;;24.93;;
13079;SDS011;6606;49.154;9.280;2022-12-18T03:17:45;49.00;;;25.37;;
13079;SDS011;6606;49.154;9.280;2022-12-18T03:20:31;53.07;;;25.70;;
13079;SDS011;6606;49.154;9.280;2022-12-18T03:23:17;48.37;;;24.37;;
13079;SDS011;6606;49.154;9.280;2022-12-18T03:26:04;50.23;;;24.80;;
13079;SDS011;6606;49.154;9.280;2022-12-18T03:28:54;48.60;;;25.47;;
13079;SDS011;6606;49.154;9.280;2022-12-18T03:31:41;46.07;;;24.70;;
13079;SDS011;6606;49.154;9.280;2022-12-18T03:34:29;50.43;;;24.20;;
13079;SDS011;6606;49.154;9.280;2022-12-18T03:37:16;45.60;;;22.33;;
13079;SDS011;6606;49.154;9.280;2022-12-18T03:39:58;49.63;;;24.67;;
13079;SDS011;6606;49.154;9.280;2022-12-18T03:42:43;43.60;;;23.77;;
13079;SDS011;6606;49.154;9.280;2022-12-18T03:45:31;40.80;;;21.43;;
13079;SDS011;6606;49.154;9.280;2022-12-18T03:48:19;41.97;;;21.27;;
13079;SDS011;6606;49.154;9.280;2022-12-18T03:51:08;44.17;;;21.30;;
13079;SDS011;6606;49.154;9.280;2022-12-18T03:53:55;43.20;;;22.20;;
13079;SDS011;6606;49.154;9.280;2022-12-18T03:56:45;42.47;;;22.00;;
13079;SDS011;6606;49.154;9.280;2022-12-18T03:59:30;43.57;;;22.33;;
13079;SDS011;6606;49.154;9.280;2022-12-18T04:02:13;43.90;;;20.90;;
13079;SDS011;6606;49.154;9.280;2022-12-18T04:04:58;42.73;;;21.27;;
13079;SDS011;6606;49.154;9.280;2022-12-18T04:07:45;51.83;;;25.13;;
13079;SDS011;6606;49.154;9.280;2022-12-18T04:10:29;44.47;;;22.63;;
13079;SDS011;6606;49.154;9.280;2022-12-18T04:13:12;48.83;;;23.53;;
13079;SDS011;6606;49.154;9.280;2022-12-18T04:16:02;48.60;;;22.63;;
13079;SDS011;6606;49.154;9.280;2022-12-18T04:18:44;43.47;;;20.20;;
13079;SDS011;6606;49.154;9.280;2022-12-18T04:21:28;45.63;;;20.40;;
13079;SDS011;6606;49.154;9.280;2022-12-18T04:24:11;44.43;;;22.47;;
13079;SDS011;6606;49.154;9.280;2022-12-18T04:26:59;42.23;;;21.10;;
13079;SDS011;6606;49.154;9.280;2022-12-18T04:29:46;39.73;;;21.50;;
13079;SDS011;6606;49.154;9.280;2022-12-18T04:32:29;42.53;;;21.03;;
13079;SDS011;6606;49.154;9.280;2022-12-18T04:35:10;48.33;;;23.63;;
13079;SDS011;6606;49.154;9.280;2022-12-18T04:37:55;42.53;;;21.37;;
13079;SDS011;6606;49.154;9.280;2022-12-18T04:40:39;45.63;;;21.77;;
13079;SDS011;6606;49.154;9.280;2022-12-18T04:43:27;44.27;;;23.00;;
13079;SDS011;6606;49.154;9.280;2022-12-18T04:46:09;42.97;;;22.10;;
13079;SDS011;6606;49.154;9.280;2022-12-18T04:48:51;46.77;;;23.13;;
13079;SDS011;6606;49.154;9.280;2022-12-18T04:51:33;50.60;;;24.03;;
13079;SDS011;6606;49.154;9.280;2022-12-18T04:54:15;41.90;;;22.27;;
13079;SDS011;6606;49.154;9.280;2022-12-18T04:56:58;43.33;;;21.93;;
13079;SDS011;6606;49.154;9.280;2022-12-18T04:59:40;48.07;;;24.43;;
13079;SDS011;6606;49.154;9.280;2022-12-18T05:02:22;44.60;;;23.17;;
13079;SDS011;6606;49.154;9.280;2022-12-18T05:05:04;43.73;;;22.10;;
13079;SDS011;6606;49.154;9.280;2022-12-18T05:07:47;39.43;;;20.80;;
13079;SDS011;6606;49.154;9.280;2022-12-18T05:10:29;44.83;;;22.77;;
13079;SDS011;6606;49.154;9.280;2022-12-18T05:13:12;44.27;;;22.50;;
13079;SDS011;6606;49.154;9.280;2022-12-18T05:15:54;41.03;;;22.27;;
13079;SDS011;6606;49.154;9.280;2022-12-18T05:18:36;41.57;;;22.60;;
13079;SDS011;6606;49.154;9.280;2022-12-18T05:21:18;38.00;;;21.03;;
13079;SDS011;6606;49.154;9.280;2022-12-18T05:24:00;45.23;;;21.93;;
13079;SDS011;6606;49.154;9.280;2022-12-18T05:26:42;45.53;;;22.00;;
13079;SDS011;6606;49.154;9.280;2022-12-18T05:29:25;44.13;;;20.47;;
13079;SDS011;6606;49.154;9.280;2022-12-18T05:32:07;36.20;;;18.53;;
13079;SDS011;6606;49.154;9.280;2022-12-18T05:34:48;38.70;;;19.87;;
13079;SDS011;6606;49.154;9.280;2022-12-18T05:37:30;44.27;;;20.57;;
13079;SDS011;6606;49.154;9.280;2022-12-18T05:40:12;42.07;;;20.83;;
13079;SDS011;6606;49.154;9.280;2022-12-18T05:42:54;37.97;;;20.20;;
13079;SDS011;6606;49.154;9.280;2022-12-18T05:45:38;69.27;;;21.90;;
13079;SDS011;6606;49.154;9.280;2022-12-18T05:48:20;42.27;;;22.10;;
13079;SDS011;6606;49.154;9.280;2022-12-18T05:51:03;46.23;;;21.07;;
13079;SDS011;6606;49.154;9.280;2022-12-18T05:53:47;48.27;;;21.57;;
13079;SDS011;6606;49.154;9.280;2022-12-18T05:56:29;47.53;;;23.57;;
13079;SDS011;6606;49.154;9.280;2022-12-18T05:59:11;44.93;;;21.30;;
13079;SDS011;6606;49.154;9.280;2022-12-18T06:01:54;40.03;;;20.23;;
13079;SDS011;6606;49.154;9.280;2022-12-18T06:04:35;47.67;;;22.30;;
13079;SDS011;6606;49.154;9.280;2022-12-18T06:07:17;40.77;;;19.30;;
13079;SDS011;6606;49.154;9.280;2022-12-18T06:09:59;46.70;;;23.17;;
13079;SDS011;6606;49.154;9.280;2022-12-18T06:12:40;46.67;;;24.23;;
13079;SDS011;6606;49.154;9.280;2022-12-18T06:15:22;43.33;;;22.13;;
13079;SDS011;6606;49.154;9.280;2022-12-18T06:18:06;49.10;;;24.47;;
13079;SDS011;6606;49.154;9.280;2022-12-18T06:20:53;44.53;;;23.07;;
13079;SDS011;6606;49.154;9.280;2022-12-18T06:23:36;52.13;;;25.90;;
13079;SDS011;6606;49.154;9.280;2022-12-18T06:26:18;45.93;;;22.27;;
13079;SDS011;6606;49.154;9.280;2022-12-18T06:29:00;49.80;;;25.03;;
13079;SDS011;6606;49.154;9.280;2022-12-18T06:31:41;52.53;;;27.27;;
13079;SDS011;6606;49.154;9.280;2022-12-18T06:34:24;54.03;;;26.40;;
13079;SDS011;6606;49.154;9.280;2022-12-18T06:37:06;53.00;;;24.97;;
13079;SDS011;6606;49.154;9.280;2022-12-18T06:39:48;49.33;;;23.77;;
13079;SDS011;6606;49.154;9.280;2022-12-18T06:42:29;56.33;;;25.57;;
13079;SDS011;6606;49.154;9.280;2022-12-18T06:45:12;45.83;;;24.73;;
13079;SDS011;6606;49.154;9.280;2022-12-18T06:47:53;52.37;;;25.23;;
13079;SDS011;6606;49.154;9.280;2022-12-18T06:50:37;47.27;;;24.87;;
13079;SDS011;6606;49.154;9.280;2022-12-18T06:53:18;51.70;;;24.50;;
13079;SDS011;6606;49.154;9.280;2022-12-18T06:56:00;49.83;;;24.70;;
13079;SDS011;6606;49.154;9.280;2022-12-18T06:58:43;48.87;;;26.63;;
13079;SDS011;6606;49.154;9.280;2022-12-18T07:01:25;51.60;;;27.60;;
13079;SDS011;6606;49.154;9.280;2022-12-18T07:04:07;49.70;;;25.30;;
13079;SDS011;6606;49.154;9.280;2022-12-18T07:06:50;54.67;;;26.87;;
13079;SDS011;6606;49.154;9.280;2022-12-18T07:09:31;51.97;;;25.57;;
13079;SDS011;6606;49.154;9.280;2022-12-18T07:12:13;53.43;;;25.50;;
13079;SDS011;6606;49.154;9.280;2022-12-18T07:14:55;51.80;;;24.77;;
13079;SDS011;6606;49.154;9.280;2022-12-18T07:17:36;51.27;;;25.97;;
13079;SDS011;6606;49.154;9.280;2022-12-18T07:20:18;53.70;;;25.60;;
13079;SDS011;6606;49.154;9.280;2022-12-18T07:23:02;56.83;;;27.00;;
13079;SDS011;6606;49.154;9.280;2022-12-18T07:25:45;48.77;;;24.53;;
13079;SDS011;6606;49.154;9.280;2022-12-18T07:28:26;53.37;;;24.57;;
13079;SDS011;6606;49.154;9.280;2022-12-18T07:31:09;54.53;;;27.87;;
13079;SDS011;6606;49.154;9.280;2022-12-18T07:33:52;52.97;;;27.00;;
13079;SDS011;6606;49.154;9.280;2022-12-18T07:36:34;54.03;;;27.73;;
13079;SDS011;6606;49.154;9.280;2022-12-18T07:39:17;70.20;;;31.40;;
13079;SDS011;6606;49.154;9.280;2022-12-18T07:41:59;58.63;;;30.43;;
13079;SDS011;6606;49.154;9.280;2022-12-18T07:44:58;63.17;;;29.70;;
13079;SDS011;6606;49.154;9.280;2022-12-18T07:47:40;68.27;;;32.63;;
13079;SDS011;6606;49.154;9.280;2022-12-18T07:50:22;65.13;;;31.57;;
13079;SDS011;6606;49.154;9.280;2022-12-18T07:53:04;70.40;;;33.57;;
13079;SDS011;6606;49.154;9.280;2022-12-18T07:55:47;63.93;;;31.67;;
13079;SDS011;6606;49.154;9.280;2022-12-18T07:58:28;69.20;;;33.77;;
13079;SDS011;6606;49.154;9.280;2022-12-18T08:01:11;59.37;;;29.77;;
13079;SDS011;6606;49.154;9.280;2022-12-18T08:03:53;64.23;;;28.93;;
13079;SDS011;6606;49.154;9.280;2022-12-18T08:06:35;65.07;;;32.80;;
13079;SDS011;6606;49.154;9.280;2022-12-18T08:09:16;72.63;;;36.60;;
13079;SDS011;6606;49.154;9.280;2022-12-18T08:12:00;63.73;;;32.30;;
13079;SDS011;6606;49.154;9.280;2022-12-18T08:14:41;65.57;;;31.47;;
13079;SDS011;6606;49.154;9.280;2022-12-18T08:17:23;67.27;;;33.90;;
13079;SDS011;6606;49.154;9.280;2022-12-18T08:20:05;72.30;;;38.23;;
13079;SDS011;6606;49.154;9.280;2022-12-18T08:22:47;81.53;;;43.67;;
13079;SDS011;6606;49.154;9.280;2022-12-18T08:25:30;65.00;;;34.33;;
13079;SDS011;6606;49.154;9.280;2022-12-18T08:28:16;69.97;;;36.23;;
13079;SDS011;6606;49.154;9.280;2022-12-18T08:30:58;64.87;;;33.93;;
13079;SDS011;6606;49.154;9.280;2022-12-18T08:33:40;66.73;;;35.53;;
13079;SDS011;6606;49.154;9.280;2022-12-18T08:36:23;65.17;;;32.37;;
13079;SDS011;6606;49.154;9.280;2022-12-18T08:39:05;61.30;;;31.57;;
13079;SDS011;6606;49.154;9.280;2022-12-18T08:41:47;62.97;;;31.10;;
13079;SDS011;6606;49.154;9.280;2022-12-18T08:44:44;56.50;;;30.17;;
13079;SDS011;6606;49.154;9.280;2022-12-18T08:47:26;61.27;;;31.93;;
13079;SDS011;6606;49.154;9.280;2022-12-18T08:50:09;62.00;;;30.30;;
13079;SDS011;6606;49.154;9.280;2022-12-18T08:52:52;62.50;;;31.27;;
13079;SDS011;6606;49.154;9.280;2022-12-18T08:55:33;61.90;;;32.10;;
13079;SDS011;6606;49.154;9.280;2022-12-18T08:58:15;62.67;;;31.57;;
13079;SDS011;6606;49.154;9.280;2022-12-18T09:01:00;56.87;;;29.07;;
13079;SDS011;6606;49.154;9.280;2022-12-18T09:03:42;54.87;;;28.77;;
13079;SDS011;6606;49.154;9.280;2022-12-18T09:06:29;57.10;;;28.60;;
13079;SDS011;6606;49.154;9.280;2022-12-18T09:09:10;50.33;;;27.87;;
13079;SDS011;6606;49.154;9.280;2022-12-18T09:11:52;51.87;;;28.53;;
13079;SDS011;6606;49.154;9.280;2022-12-18T09:14:34;51.73;;;26.63;;
13079;SDS011;6606;49.154;9.280;2022-12-18T09:17:17;53.60;;;29.43;;
13079;SDS011;6606;49.154;9.280;2022-12-18T09:19:59;91.77;;;39.37;;
13079;SDS011;6606;49.154;9.280;2022-12-18T09:22:41;84.07;;;36.60;;
13079;SDS011;6606;49.154;9.280;2022-12-18T09:25:23;80.63;;;36.57;;
13079;SDS011;6606;49.154;9.280;2022-12-18T09:28:05;90.37;;;40.83;;
13079;SDS011;6606;49.154;9.280;2022-12-18T09:30:48;54.50;;;28.03;;
13079;SDS011;6606;49.154;9.280;2022-12-18T09:33:32;54.83;;;30.20;;
13079;SDS011;6606;49.154;9.280;2022-12-18T09:36:17;61.83;;;31.00;;
13079;SDS011;6606;49.154;9.280;2022-12-18T09:38:59;56.80;;;29.80;;
13079;SDS011;6606;49.154;9.280;2022-12-18T09:41:43;47.33;;;27.43;;
13079;SDS011;6606;49.154;9.280;2022-12-18T09:44:28;46.23;;;26.70;;
13079;SDS011;6606;49.154;9.280;2022-12-18T09:47:12;52.87;;;28.93;;
13079;SDS011;6606;49.154;9.280;2022-12-18T09:50:01;46.43;;;26.70;;
13079;SDS011;6606;49.154;9.280;2022-12-18T09:52:47;51.10;;;27.13;;
13079;SDS011;6606;49.154;9.280;2022-12-18T09:55:33;49.53;;;26.67;;
13079;SDS011;6606;49.154;9.280;2022-12-18T09:58:19;46.43;;;26.17;;
13079;SDS011;6606;49.154;9.280;2022-12-18T10:01:08;46.70;;;26.10;;
13079;SDS011;6606;49.154;9.280;2022-12-18T10:03:51;49.07;;;27.03;;
13079;SDS011;6606;49.154;9.280;2022-12-18T10:06:37;53.67;;;27.73;;
13079;SDS011;6606;49.154;9.280;2022-12-18T10:09:27;49.53;;;27.27;;
13079;SDS011;6606;49.154;9.280;2022-12-18T10:12:12;55.80;;;28.20;;
13079;SDS011;6606;49.154;9.280;2022-12-18T10:15:04;49.93;;;27.40;;
13079;SDS011;6606;49.154;9.280;2022-12-18T10:17:56;46.40;;;25.00;;
13079;SDS011;6606;49.154;9.280;2022-12-18T10:20:43;49.07;;;27.43;;
13079;SDS011;6606;49.154;9.280;2022-12-18T10:23:30;49.67;;;26.83;;
13079;SDS011;6606;49.154;9.280;2022-12-18T10:26:21;54.47;;;29.37;;
13079;SDS011;6606;49.154;9.280;2022-12-18T10:29:04;49.37;;;27.03;;
13079;SDS011;6606;49.154;9.280;2022-12-18T10:31:51;54.67;;;29.93;;
13079;SDS011;6606;49.154;9.280;2022-12-18T10:34:32;50.10;;;26.73;;
13079;SDS011;6606;49.154;9.280;2022-12-18T10:37:15;47.63;;;24.87;;
13079;SDS011;6606;49.154;9.280;2022-12-18T10:40:07;49.10;;;25.50;;
13079;SDS011;6606;49.154;9.280;2022-12-18T10:43:01;45.63;;;24.63;;
13079;SDS011;6606;49.154;9.280;2022-12-18T10:45:57;48.50;;;25.97;;
13079;SDS011;6606;49.154;9.280;2022-12-18T10:48:47;46.93;;;24.47;;
13079;SDS011;6606;49.154;9.280;2022-12-18T10:51:33;48.13;;;24.90;;
13079;SDS011;6606;49.154;9.280;2022-12-18T10:54:18;46.87;;;24.53;;
13079;SDS011;6606;49.154;9.280;2022-12-18T10:57:17;55.40;;;31.53;;
13079;SDS011;6606;49.154;9.280;2022-12-18T11:00:23;47.47;;;24.90;;
13079;SDS011;6606;49.154;9.280;2022-12-18T11:03:12;48.87;;;25.87;;
13079;SDS011;6606;49.154;9.280;2022-12-18T11:06:12;45.53;;;24.77;;
13079;SDS011;6606;49.154;9.280;2022-12-18T11:08:58;49.83;;;25.60;;
13079;SDS011;6606;49.154;9.280;2022-12-18T11:11:41;46.43;;;24.83;;
13079;SDS011;6606;49.154;9.280;2022-12-18T11:14:31;43.60;;;23.67;;
13079;SDS011;6606;49.154;9.280;2022-12-18T11:17:18;46.73;;;24.30;;
13079;SDS011;6606;49.154;9.280;2022-12-18T11:20:02;44.27;;;24.30;;
13079;SDS011;6606;49.154;9.280;2022-12-18T11:22:54;45.77;;;25.13;;
13079;SDS011;6606;49.154;9.280;2022-12-18T11:25:37;47.03;;;25.63;;
13079;SDS011;6606;49.154;9.280;2022-12-18T11:28:27;52.23;;;25.73;;
13079;SDS011;6606;49.154;9.280;2022-12-18T11:31:18;45.50;;;23.97;;
13079;SDS011;6606;49.154;9.280;2022-12-18T11:34:05;46.30;;;23.27;;
13079;SDS011;6606;49.154;9.280;2022-12-18T11:36:53;44.50;;;23.83;;
13079;SDS011;6606;49.154;9.280;2022-12-18T11:39:36;47.23;;;24.23;;
13079;SDS011;6606;49.154;9.280;2022-12-18T11:42:22;46.33;;;24.97;;
13079;SDS011;6606;49.154;9.280;2022-12-18T11:45:18;45.83;;;24.33;;
13079;SDS011;6606;49.154;9.280;2022-12-18T11:48:10;40.13;;;23.17;;
13079;SDS011;6606;49.154;9.280;2022-12-18T11:50:58;42.03;;;23.30;;
13079;SDS011;6606;49.154;9.280;2022-12-18T11:53:42;46.77;;;24.80;;
13079;SDS011;6606;49.154;9.280;2022-12-18T11:56:27;41.93;;;23.17;;
13079;SDS011;6606;49.154;9.280;2022-12-18T11:59:15;46.33;;;24.33;;
13079;SDS011;6606;49.154;9.280;2022-12-18T12:02:19;46.73;;;24.23;;
13079;SDS011;6606;49.154;9.280;2022-12-18T12:05:26;44.90;;;24.33;;
13079;SDS011;6606;49.154;9.280;2022-12-18T12:08:18;45.47;;;23.57;;
13079;SDS011;6606;49.154;9.280;2022-12-18T12:11:10;39.83;;;21.17;;
13079;SDS011;6606;49.154;9.280;2022-12-18T12:14:05;45.50;;;24.67;;
13079;SDS011;6606;49.154;9.280;2022-12-18T12:16:57;43.87;;;24.40;;
13079;SDS011;6606;49.154;9.280;2022-12-18T12:19:46;43.83;;;23.23;;
13079;SDS011;6606;49.154;9.280;2022-12-18T12:22:37;46.67;;;23.27;;
13079;SDS011;6606;49.154;9.280;2022-12-18T12:25:33;45.40;;;24.10;;
13079;SDS011;6606;49.154;9.280;2022-12-18T12:28:24;40.80;;;23.07;;
13079;SDS011;6606;49.154;9.280;2022-12-18T12:31:19;42.93;;;22.87;;
13079;SDS011;6606;49.154;9.280;2022-12-18T12:34:13;46.63;;;24.57;;
13079;SDS011;6606;49.154;9.280;2022-12-18T12:37:03;42.17;;;23.83;;
13079;SDS011;6606;49.154;9.280;2022-12-18T12:39:56;43.10;;;23.73;;
13079;SDS011;6606;49.154;9.280;2022-12-18T12:42:41;44.33;;;23.90;;
13079;SDS011;6606;49.154;9.280;2022-12-18T12:45:47;43.03;;;23.40;;
13079;SDS011;6606;49.154;9.280;2022-12-18T12:48:33;42.97;;;23.47;;
13079;SDS011;6606;49.154;9.280;2022-12-18T12:51:20;42.13;;;23.57;;
13079;SDS011;6606;49.154;9.280;2022-12-18T12:54:04;42.23;;;22.47;;
13079;SDS011;6606;49.154;9.280;2022-12-18T12:56:54;41.67;;;23.47;;
13079;SDS011;6606;49.154;9.280;2022-12-18T12:59:44;41.23;;;23.27;;
13079;SDS011;6606;49.154;9.280;2022-12-18T13:02:33;41.20;;;23.00;;
13079;SDS011;6606;49.154;9.280;2022-12-18T13:05:20;42.60;;;23.40;;
13079;SDS011;6606;49.154;9.280;2022-12-18T13:08:08;39.20;;;23.03;;
13079;SDS011;6606;49.154;9.280;2022-12-18T13:10:52;40.97;;;22.07;;
13079;SDS011;6606;49.154;9.280;2022-12-18T13:13:56;39.97;;;21.87;;
13079;SDS011;6606;49.154;9.280;2022-12-18T13:16:37;40.83;;;22.70;;
13079;SDS011;6606;49.154;9.280;2022-12-18T13:19:22;43.80;;;24.10;;
13079;SDS011;6606;49.154;9.280;2022-12-18T13:22:10;38.83;;;22.23;;
13079;SDS011;6606;49.154;9.280;2022-12-18T13:25:03;37.97;;;22.67;;
13079;SDS011;6606;49.154;9.280;2022-12-18T13:28:16;36.87;;;21.40;;
13079;SDS011;6606;49.154;9.280;2022-12-18T13:31:03;40.37;;;22.27;;
13079;SDS011;6606;49.154;9.280;2022-12-18T13:33:45;43.33;;;23.37;;
13079;SDS011;6606;49.154;9.280;2022-12-18T13:36:29;38.77;;;22.07;;
13079;SDS011;6606;49.154;9.280;2022-12-18T13:39:21;41.33;;;22.60;;
13079;SDS011;6606;49.154;9.280;2022-12-18T13:42:36;41.67;;;22.60;;
13079;SDS011;6606;49.154;9.280;2022-12-18T13:45:44;38.10;;;21.00;;
13079;SDS011;6606;49.154;9.280;2022-12-18T13:48:31;42.57;;;22.43;;
13079;SDS011;6606;49.154;9.280;2022-12-18T13:51:15;43.23;;;23.80;;
13079;SDS011;6606;49.154;9.280;2022-12-18T13:53:59;42.40;;;22.90;;
13079;SDS011;6606;49.154;9.280;2022-12-18T13:56:44;40.00;;;22.57;;
13079;SDS011;6606;49.154;9.280;2022-12-18T13:59:33;39.07;;;22.67;;
13079;SDS011;6606;49.154;9.280;2022-12-18T14:02:16;38.60;;;21.93;;
13079;SDS011;6606;49.154;9.280;2022-12-18T14:05:03;38.20;;;20.93;;
13079;SDS011;6606;49.154;9.280;2022-12-18T14:07:45;35.83;;;20.23;;
13079;SDS011;6606;49.154;9.280;2022-12-18T14:10:27;39.80;;;22.30;;
13079;SDS011;6606;49.154;9.280;2022-12-18T14:13:09;36.60;;;21.03;;
13079;SDS011;6606;49.154;9.280;2022-12-18T14:15:52;38.77;;;22.00;;
13079;SDS011;6606;49.154;9.280;2022-12-18T14:18:39;41.73;;;23.53;;
13079;SDS011;6606;49.154;9.280;2022-12-18T14:21:26;39.43;;;22.23;;
13079;SDS011;6606;49.154;9.280;2022-12-18T14:24:13;37.67;;;21.77;;
13079;SDS011;6606;49.154;9.280;2022-12-18T14:26:56;36.60;;;20.70;;
13079;SDS011;6606;49.154;9.280;2022-12-18T14:30:00;41.60;;;21.23;;
13079;SDS011;6606;49.154;9.280;2022-12-18T14:32:42;38.50;;;22.00;;
13079;SDS011;6606;49.154;9.280;2022-12-18T14:35:24;40.20;;;21.80;;
13079;SDS011;6606;49.154;9.280;2022-12-18T14:38:11;42.43;;;22.47;;
13079;SDS011;6606;49.154;9.280;2022-12-18T14:41:03;42.23;;;24.27;;
13079;SDS011;6606;49.154;9.280;2022-12-18T14:43:47;42.17;;;24.30;;
13079;SDS011;6606;49.154;9.280;2022-12-18T14:46:32;45.23;;;25.70;;
13079;SDS011;6606;49.154;9.280;2022-12-18T14:49:21;39.33;;;22.50;;
13079;SDS011;6606;49.154;9.280;2022-12-18T14:52:06;39.87;;;22.50;;
13079;SDS011;6606;49.154;9.280;2022-12-18T14:55:02;47.57;;;26.80;;
13079;SDS011;6606;49.154;9.280;2022-12-18T14:57:44;48.00;;;26.30;;
13079;SDS011;6606;49.154;9.280;2022-12-18T15:00:26;46.60;;;24.63;;
13079;SDS011;6606;49.154;9.280;2022-12-18T15:03:08;39.37;;;22.33;;
13079;SDS011;6606;49.154;9.280;2022-12-18T15:05:54;41.20;;;22.70;;
13079;SDS011;6606;49.154;9.280;2022-12-18T15:08:36;40.63;;;22.13;;
13079;SDS011;6606;49.154;9.280;2022-12-18T15:11:32;48.10;;;24.03;;
13079;SDS011;6606;49.154;9.280;2022-12-18T15:14:32;43.67;;;24.20;;
13079;SDS011;6606;49.154;9.280;2022-12-18T15:17:21;41.67;;;23.63;;
13079;SDS011;6606;49.154;9.280;2022-12-18T15:20:08;44.27;;;25.30;;
13079;SDS011;6606;49.154;9.280;2022-12-18T15:22:51;45.80;;;25.03;;
13079;SDS011;6606;49.154;9.280;2022-12-18T15:25:34;49.13;;;25.23;;
13079;SDS011;6606;49.154;9.280;2022-12-18T15:28:21;45.70;;;25.57;;
13079;SDS011;6606;49.154;9.280;2022-12-18T15:31:17;50.03;;;26.97;;
13079;SDS011;6606;49.154;9.280;2022-12-18T15:34:10;50.17;;;27.50;;
13079;SDS011;6606;49.154;9.280;2022-12-18T15:36:55;48.30;;;26.73;;
13079;SDS011;6606;49.154;9.280;2022-12-18T15:39:36;51.40;;;26.63;;
13079;SDS011;6606;49.154;9.280;2022-12-18T15:42:18;50.60;;;27.23;;
13079;SDS011;6606;49.154;9.280;2022-12-18T15:45:18;53.63;;;27.80;;
13079;SDS011;6606;49.154;9.280;2022-12-18T15:48:00;47.07;;;25.47;;
13079;SDS011;6606;49.154;9.280;2022-12-18T15:50:42;50.20;;;25.33;;
13079;SDS011;6606;49.154;9.280;2022-12-18T15:53:25;51.63;;;26.90;;
13079;SDS011;6606;49.154;9.280;2022-12-18T15:56:11;55.40;;;30.07;;
13079;SDS011;6606;49.154;9.280;2022-12-18T15:59:15;48.93;;;26.40;;
13079;SDS011;6606;49.154;9.280;2022-12-18T16:01:59;52.93;;;27.70;;
13079;SDS011;6606;49.154;9.280;2022-12-18T16:04:41;52.40;;;26.90;;
13079;SDS011;6606;49.154;9.280;2022-12-18T16:07:23;49.27;;;24.87;;
13079;SDS011;6606;49.154;9.280;2022-12-18T16:10:06;51.17;;;27.83;;
13079;SDS011;6606;49.154;9.280;2022-12-18T16:12:49;43.83;;;24.20;;
13079;SDS011;6606;49.154;9.280;2022-12-18T16:15:30;55.30;;;28.60;;
13079;SDS011;6606;49.154;9.280;2022-12-18T16:18:13;48.67;;;25.97;;
13079;SDS011;6606;49.154;9.280;2022-12-18T16:20:55;47.07;;;25.07;;
13079;SDS011;6606;49.154;9.280;2022-12-18T16:23:37;52.23;;;24.97;;